sensor_id;sensor_type;location;lat;lon;timestamp;pressure;altitude;pressure_sealevel;temperature
11926;BMP180;6022;48.768;18.608;2023-07-08T00:00:56;99008.84;;;16.95
11926;BMP180;6022;48.768;18.608;2023-07-08T00:03:24;99016.06;;;17.01
11926;BMP180;6022;48.768;18.608;2023-07-08T00:05:55;99023.41;;;17.05
11926;BMP180;6022;48.768;18.608;2023-07-08T00:08:24;99020.94;;;17.04
11926;BMP180;6022;48.768;18.608;2023-07-08T00:10:53;99010.50;;;16.96
11926;BMP180;6022;48.768;18.608;2023-07-08T00:13:21;99025.63;;;16.99
11926;BMP180;6022;48.768;18.608;2023-07-08T00:15:48;99015.63;;;16.96
11926;BMP180;6022;48.768;18.608;2023-07-08T00:18:17;99015.16;;;16.91
11926;BMP180;6022;48.768;18.608;2023-07-08T00:20:50;99013.91;;;16.75
11926;BMP180;6022;48.768;18.608;2023-07-08T00:23:21;99020.81;;;16.74
11926;BMP180;6022;48.768;18.608;2023-07-08T00:25:49;99020.31;;;16.80
11926;BMP180;6022;48.768;18.608;2023-07-08T00:28:21;99034.16;;;16.89
11926;BMP180;6022;48.768;18.608;2023-07-08T00:30:48;99034.28;;;16.87
11926;BMP180;6022;48.768;18.608;2023-07-08T00:33:16;99028.84;;;16.81
11926;BMP180;6022;48.768;18.608;2023-07-08T00:35:45;99029.19;;;16.76
11926;BMP180;6022;48.768;18.608;2023-07-08T00:38:21;99020.56;;;16.77
11926;BMP180;6022;48.768;18.608;2023-07-08T00:41:30;99025.94;;;16.63
11926;BMP180;6022;48.768;18.608;2023-07-08T00:43:59;99024.06;;;16.65
11926;BMP180;6022;48.768;18.608;2023-07-08T00:51:39;99013.03;;;16.65
11926;BMP180;6022;48.768;18.608;2023-07-08T00:54:18;99025.72;;;16.66
11926;BMP180;6022;48.768;18.608;2023-07-08T00:57:03;99021.66;;;16.64
11926;BMP180;6022;48.768;18.608;2023-07-08T00:59:52;99027.00;;;16.61
11926;BMP180;6022;48.768;18.608;2023-07-08T01:02:24;99016.06;;;16.59
11926;BMP180;6022;48.768;18.608;2023-07-08T01:05:07;99010.84;;;16.50
11926;BMP180;6022;48.768;18.608;2023-07-08T01:07:42;99011.44;;;16.42
11926;BMP180;6022;48.768;18.608;2023-07-08T01:10:26;99001.09;;;16.44
11926;BMP180;6022;48.768;18.608;2023-07-08T01:12:59;99005.03;;;16.37
11926;BMP180;6022;48.768;18.608;2023-07-08T01:15:39;99012.72;;;16.37
11926;BMP180;6022;48.768;18.608;2023-07-08T01:18:10;99012.13;;;16.33
11926;BMP180;6022;48.768;18.608;2023-07-08T01:20:45;99011.34;;;16.33
11926;BMP180;6022;48.768;18.608;2023-07-08T01:23:14;99012.41;;;16.30
11926;BMP180;6022;48.768;18.608;2023-07-08T01:25:44;99007.16;;;16.21
11926;BMP180;6022;48.768;18.608;2023-07-08T01:28:13;99005.97;;;16.14
11926;BMP180;6022;48.768;18.608;2023-07-08T01:30:45;99015.72;;;16.09
11926;BMP180;6022;48.768;18.608;2023-07-08T01:33:20;99004.31;;;16.13
11926;BMP180;6022;48.768;18.608;2023-07-08T01:35:52;99011.31;;;16.11
11926;BMP180;6022;48.768;18.608;2023-07-08T01:38:25;99015.63;;;16.11
11926;BMP180;6022;48.768;18.608;2023-07-08T01:40:58;99010.97;;;16.05
11926;BMP180;6022;48.768;18.608;2023-07-08T01:43:27;99015.28;;;16.04
11926;BMP180;6022;48.768;18.608;2023-07-08T01:45:58;99008.75;;;15.89
11926;BMP180;6022;48.768;18.608;2023-07-08T01:48:33;99007.47;;;15.84
11926;BMP180;6022;48.768;18.608;2023-07-08T01:51:08;99002.81;;;15.78
11926;BMP180;6022;48.768;18.608;2023-07-08T01:54:00;99000.25;;;15.78
11926;BMP180;6022;48.768;18.608;2023-07-08T01:56:29;99005.28;;;15.80
11926;BMP180;6022;48.768;18.608;2023-07-08T01:58:56;99005.28;;;15.80
11926;BMP180;6022;48.768;18.608;2023-07-08T02:01:23;99009.22;;;15.73
11926;BMP180;6022;48.768;18.608;2023-07-08T02:03:51;99006.41;;;15.65
11926;BMP180;6022;48.768;18.608;2023-07-08T02:06:18;99005.13;;;15.59
11926;BMP180;6022;48.768;18.608;2023-07-08T02:08:53;99011.38;;;15.55
11926;BMP180;6022;48.768;18.608;2023-07-08T02:11:23;99016.94;;;15.49
11926;BMP180;6022;48.768;18.608;2023-07-08T02:13:50;99022.41;;;15.45
11926;BMP180;6022;48.768;18.608;2023-07-08T02:16:17;99022.50;;;15.44
11926;BMP180;6022;48.768;18.608;2023-07-08T02:18:47;99019.59;;;15.37
11926;BMP180;6022;48.768;18.608;2023-07-08T02:21:17;99025.84;;;15.33
11926;BMP180;6022;48.768;18.608;2023-07-08T02:23:50;99020.75;;;15.33
11926;BMP180;6022;48.768;18.608;2023-07-08T02:26:18;99021.75;;;15.31
11926;BMP180;6022;48.768;18.608;2023-07-08T02:28:46;99019.75;;;15.23
11926;BMP180;6022;48.768;18.608;2023-07-08T02:31:16;99027.78;;;15.19
11926;BMP180;6022;48.768;18.608;2023-07-08T02:33:45;99027.78;;;15.19
11926;BMP180;6022;48.768;18.608;2023-07-08T02:36:13;99023.63;;;15.06
11926;BMP180;6022;48.768;18.608;2023-07-08T02:38:40;99022.09;;;15.03
11926;BMP180;6022;48.768;18.608;2023-07-08T02:41:12;99017.16;;;14.89
11926;BMP180;6022;48.768;18.608;2023-07-08T02:43:44;99021.94;;;14.94
11926;BMP180;6022;48.768;18.608;2023-07-08T02:46:20;99018.47;;;14.95
11926;BMP180;6022;48.768;18.608;2023-07-08T02:48:49;99025.06;;;14.97
11926;BMP180;6022;48.768;18.608;2023-07-08T02:51:17;99025.22;;;14.96
11926;BMP180;6022;48.768;18.608;2023-07-08T02:53:44;99033.31;;;14.90
11926;BMP180;6022;48.768;18.608;2023-07-08T02:56:15;99036.28;;;14.84
11926;BMP180;6022;48.768;18.608;2023-07-08T02:58:43;99032.81;;;14.85
11926;BMP180;6022;48.768;18.608;2023-07-08T03:01:15;99035.09;;;14.77
11926;BMP180;6022;48.768;18.608;2023-07-08T03:03:47;99043.13;;;14.83
11926;BMP180;6022;48.768;18.608;2023-07-08T03:06:15;99039.78;;;14.83
11926;BMP180;6022;48.768;18.608;2023-07-08T03:08:44;99034.22;;;14.89
11926;BMP180;6022;48.768;18.608;2023-07-08T03:11:15;99032.81;;;14.85
11926;BMP180;6022;48.768;18.608;2023-07-08T03:13:44;99036.06;;;14.87
11926;BMP180;6022;48.768;18.608;2023-07-08T03:16:12;99033.25;;;14.79
11926;BMP180;6022;48.768;18.608;2023-07-08T03:18:43;99032.31;;;14.80
11926;BMP180;6022;48.768;18.608;2023-07-08T03:21:17;99032.22;;;14.81
11926;BMP180;6022;48.768;18.608;2023-07-08T03:23:50;99027.25;;;14.91
11926;BMP180;6022;48.768;18.608;2023-07-08T03:26:33;99027.25;;;14.91
11926;BMP180;6022;48.768;18.608;2023-07-08T03:29:02;99024.00;;;14.89
11926;BMP180;6022;48.768;18.608;2023-07-08T03:31:33;99024.00;;;14.89
11926;BMP180;6022;48.768;18.608;2023-07-08T03:34:00;99021.94;;;14.94
11926;BMP180;6022;48.768;18.608;2023-07-08T03:36:27;99020.09;;;14.96
11926;BMP180;6022;48.768;18.608;2023-07-08T03:38:57;99020.81;;;14.98
11926;BMP180;6022;48.768;18.608;2023-07-08T03:41:34;99035.63;;;14.93
11926;BMP180;6022;48.768;18.608;2023-07-08T03:44:08;99028.22;;;15.01
11926;BMP180;6022;48.768;18.608;2023-07-08T03:46:36;99032.69;;;15.10
11926;BMP180;6022;48.768;18.608;2023-07-08T03:49:08;99034.13;;;15.37
11926;BMP180;6022;48.768;18.608;2023-07-08T03:59:18;99028.50;;;16.63
11926;BMP180;6022;48.768;18.608;2023-07-08T04:01:48;99023.97;;;16.56
11926;BMP180;6022;48.768;18.608;2023-07-08T04:04:20;99023.38;;;16.63
11926;BMP180;6022;48.768;18.608;2023-07-08T04:06:48;99018.53;;;16.28
11926;BMP180;6022;48.768;18.608;2023-07-08T04:09:25;99023.66;;;16.50
11926;BMP180;6022;48.768;18.608;2023-07-08T04:11:58;99028.34;;;16.87
11926;BMP180;6022;48.768;18.608;2023-07-08T04:14:27;99029.03;;;16.89
11926;BMP180;6022;48.768;18.608;2023-07-08T04:17:06;99025.50;;;17.01
11926;BMP180;6022;48.768;18.608;2023-07-08T04:19:38;99016.81;;;16.92
11926;BMP180;6022;48.768;18.608;2023-07-08T04:22:20;99025.94;;;16.63
11926;BMP180;6022;48.768;18.608;2023-07-08T04:24:57;99019.00;;;16.55
11926;BMP180;6022;48.768;18.608;2023-07-08T04:28:06;99028.31;;;16.56
11926;BMP180;6022;48.768;18.608;2023-07-08T04:30:35;99022.25;;;16.57
11926;BMP180;6022;48.768;18.608;2023-07-08T04:33:17;99018.75;;;16.58
11926;BMP180;6022;48.768;18.608;2023-07-08T04:35:54;99019.13;;;16.42
11926;BMP180;6022;48.768;18.608;2023-07-08T04:38:26;99027.91;;;16.71
11926;BMP180;6022;48.768;18.608;2023-07-08T04:40:58;99022.25;;;16.99
11926;BMP180;6022;48.768;18.608;2023-07-08T04:43:36;99026.03;;;17.15
11926;BMP180;6022;48.768;18.608;2023-07-08T04:46:46;99020.41;;;17.32
11926;BMP180;6022;48.768;18.608;2023-07-08T04:49:25;99031.16;;;19.13
11926;BMP180;6022;48.768;18.608;2023-07-08T04:52:02;99025.63;;;20.36
11926;BMP180;6022;48.768;18.608;2023-07-08T04:54:35;99016.88;;;21.77
11926;BMP180;6022;48.768;18.608;2023-07-08T04:57:13;99013.59;;;22.25
11926;BMP180;6022;48.768;18.608;2023-07-08T04:59:47;99013.41;;;23.56
11926;BMP180;6022;48.768;18.608;2023-07-08T05:02:17;99018.75;;;23.47
11926;BMP180;6022;48.768;18.608;2023-07-08T05:04:54;99015.00;;;24.50
11926;BMP180;6022;48.768;18.608;2023-07-08T05:07:24;99014.84;;;24.74
11926;BMP180;6022;48.768;18.608;2023-07-08T05:09:54;99008.94;;;24.88
11926;BMP180;6022;48.768;18.608;2023-07-08T05:12:27;99010.22;;;26.38
11926;BMP180;6022;48.768;18.608;2023-07-08T05:14:56;99005.84;;;26.73
11926;BMP180;6022;48.768;18.608;2023-07-08T05:17:27;99005.41;;;27.46
11926;BMP180;6022;48.768;18.608;2023-07-08T05:20:00;98997.84;;;26.75
11926;BMP180;6022;48.768;18.608;2023-07-08T05:23:11;99007.41;;;27.72
11926;BMP180;6022;48.768;18.608;2023-07-08T05:25:39;99004.50;;;26.28
11926;BMP180;6022;48.768;18.608;2023-07-08T05:28:09;99008.59;;;26.37
11926;BMP180;6022;48.768;18.608;2023-07-08T05:30:42;99023.22;;;28.24
11926;BMP180;6022;48.768;18.608;2023-07-08T05:33:17;99010.50;;;29.01
11926;BMP180;6022;48.768;18.608;2023-07-08T05:35:55;99004.13;;;29.62
11926;BMP180;6022;48.768;18.608;2023-07-08T05:38:27;99009.25;;;28.38
11926;BMP180;6022;48.768;18.608;2023-07-08T05:40:57;99009.94;;;29.96
11926;BMP180;6022;48.768;18.608;2023-07-08T05:43:26;99007.53;;;30.63
11926;BMP180;6022;48.768;18.608;2023-07-08T05:45:59;99012.78;;;30.01
11926;BMP180;6022;48.768;18.608;2023-07-08T05:48:48;99017.81;;;31.63
11926;BMP180;6022;48.768;18.608;2023-07-08T05:51:18;99015.44;;;32.57
11926;BMP180;6022;48.768;18.608;2023-07-08T05:53:53;99025.53;;;32.24
11926;BMP180;6022;48.768;18.608;2023-07-08T05:56:23;99024.19;;;31.49
11926;BMP180;6022;48.768;18.608;2023-07-08T05:58:55;99034.81;;;32.02
11926;BMP180;6022;48.768;18.608;2023-07-08T06:01:25;99027.09;;;31.90
11926;BMP180;6022;48.768;18.608;2023-07-08T06:04:06;99023.97;;;30.33
11926;BMP180;6022;48.768;18.608;2023-07-08T06:06:33;99031.47;;;29.21
11926;BMP180;6022;48.768;18.608;2023-07-08T06:09:03;99022.84;;;29.78
11926;BMP180;6022;48.768;18.608;2023-07-08T06:11:33;99027.84;;;29.34
11926;BMP180;6022;48.768;18.608;2023-07-08T06:14:16;99026.28;;;31.41
11926;BMP180;6022;48.768;18.608;2023-07-08T06:16:45;99030.88;;;31.15
11926;BMP180;6022;48.768;18.608;2023-07-08T06:19:23;99034.38;;;31.63
11926;BMP180;6022;48.768;18.608;2023-07-08T06:21:58;99028.66;;;29.61
11926;BMP180;6022;48.768;18.608;2023-07-08T06:24:48;99024.84;;;29.44
11926;BMP180;6022;48.768;18.608;2023-07-08T06:27:15;99028.22;;;30.84
11926;BMP180;6022;48.768;18.608;2023-07-08T06:29:44;99025.75;;;33.05
11926;BMP180;6022;48.768;18.608;2023-07-08T06:32:13;99020.34;;;32.18
11926;BMP180;6022;48.768;18.608;2023-07-08T06:34:43;99019.84;;;31.61
11926;BMP180;6022;48.768;18.608;2023-07-08T06:37:10;99020.22;;;32.95
11926;BMP180;6022;48.768;18.608;2023-07-08T06:39:37;99017.25;;;33.95
11926;BMP180;6022;48.768;18.608;2023-07-08T06:42:08;99020.44;;;35.26
11926;BMP180;6022;48.768;18.608;2023-07-08T06:44:38;99018.38;;;35.44
11926;BMP180;6022;48.768;18.608;2023-07-08T06:47:08;99023.25;;;35.52
11926;BMP180;6022;48.768;18.608;2023-07-08T06:49:36;99015.81;;;33.18
11926;BMP180;6022;48.768;18.608;2023-07-08T06:52:03;99011.91;;;35.08
11926;BMP180;6022;48.768;18.608;2023-07-08T06:54:30;99012.91;;;35.50
11926;BMP180;6022;48.768;18.608;2023-07-08T06:56:57;99008.13;;;32.77
11926;BMP180;6022;48.768;18.608;2023-07-08T06:59:24;99003.91;;;32.22
11926;BMP180;6022;48.768;18.608;2023-07-08T07:02:00;99003.34;;;33.77
11926;BMP180;6022;48.768;18.608;2023-07-08T07:04:30;99002.66;;;34.66
11926;BMP180;6022;48.768;18.608;2023-07-08T07:06:59;99004.66;;;33.86
11926;BMP180;6022;48.768;18.608;2023-07-08T07:09:26;99000.66;;;32.91
11926;BMP180;6022;48.768;18.608;2023-07-08T07:11:53;99002.03;;;34.59
11926;BMP180;6022;48.768;18.608;2023-07-08T07:14:21;99010.28;;;32.50
11926;BMP180;6022;48.768;18.608;2023-07-08T07:16:54;99003.69;;;32.06
11926;BMP180;6022;48.768;18.608;2023-07-08T07:19:35;99012.00;;;33.03
11926;BMP180;6022;48.768;18.608;2023-07-08T07:22:02;99000.59;;;31.67
11926;BMP180;6022;48.768;18.608;2023-07-08T07:24:33;98998.88;;;33.03
11926;BMP180;6022;48.768;18.608;2023-07-08T07:27:03;99005.09;;;33.83
11926;BMP180;6022;48.768;18.608;2023-07-08T07:29:48;98995.84;;;34.81
11926;BMP180;6022;48.768;18.608;2023-07-08T07:32:18;98998.84;;;36.15
11926;BMP180;6022;48.768;18.608;2023-07-08T07:34:50;98986.84;;;35.87
11926;BMP180;6022;48.768;18.608;2023-07-08T07:37:21;98986.63;;;36.09
11926;BMP180;6022;48.768;18.608;2023-07-08T07:39:48;98990.25;;;36.03
11926;BMP180;6022;48.768;18.608;2023-07-08T07:42:17;98995.81;;;36.66
11926;BMP180;6022;48.768;18.608;2023-07-08T07:44:49;98995.22;;;37.73
11926;BMP180;6022;48.768;18.608;2023-07-08T07:47:16;98997.31;;;37.66
11926;BMP180;6022;48.768;18.608;2023-07-08T07:49:43;98990.78;;;37.47
11926;BMP180;6022;48.768;18.608;2023-07-08T07:52:13;98997.63;;;37.43
11926;BMP180;6022;48.768;18.608;2023-07-08T07:54:40;99004.03;;;37.47
11926;BMP180;6022;48.768;18.608;2023-07-08T07:57:08;99001.56;;;35.83
11926;BMP180;6022;48.768;18.608;2023-07-08T07:59:58;98993.47;;;36.48
11926;BMP180;6022;48.768;18.608;2023-07-08T08:02:25;98999.38;;;34.59
11926;BMP180;6022;48.768;18.608;2023-07-08T08:04:53;98991.22;;;33.88
11926;BMP180;6022;48.768;18.608;2023-07-08T08:07:22;98990.53;;;35.53
11926;BMP180;6022;48.768;18.608;2023-07-08T08:09:52;98991.75;;;35.99
11926;BMP180;6022;48.768;18.608;2023-07-08T08:12:24;98982.28;;;36.62
11926;BMP180;6022;48.768;18.608;2023-07-08T08:14:54;98986.88;;;36.71
11926;BMP180;6022;48.768;18.608;2023-07-08T08:17:23;98987.94;;;36.97
11926;BMP180;6022;48.768;18.608;2023-07-08T08:19:56;98973.00;;;36.01
11926;BMP180;6022;48.768;18.608;2023-07-08T08:22:27;98969.13;;;36.25
11926;BMP180;6022;48.768;18.608;2023-07-08T08:24:56;98971.63;;;36.78
11926;BMP180;6022;48.768;18.608;2023-07-08T08:27:36;98976.53;;;36.65
11926;BMP180;6022;48.768;18.608;2023-07-08T08:30:31;98979.31;;;37.06
11926;BMP180;6022;48.768;18.608;2023-07-08T08:33:41;98967.09;;;37.05
11926;BMP180;6022;48.768;18.608;2023-07-08T08:36:22;98976.28;;;37.24
11926;BMP180;6022;48.768;18.608;2023-07-08T08:39:00;98971.00;;;37.24
11926;BMP180;6022;48.768;18.608;2023-07-08T08:41:35;98964.16;;;34.65
11926;BMP180;6022;48.768;18.608;2023-07-08T08:44:04;98968.03;;;35.67
11926;BMP180;6022;48.768;18.608;2023-07-08T08:51:54;98960.63;;;36.44
11926;BMP180;6022;48.768;18.608;2023-07-08T08:54:29;98967.53;;;36.66
11926;BMP180;6022;48.768;18.608;2023-07-08T08:59:54;98975.50;;;36.97
11926;BMP180;6022;48.768;18.608;2023-07-08T09:05:18;98975.13;;;37.10
11926;BMP180;6022;48.768;18.608;2023-07-08T09:10:51;98956.44;;;35.68
11926;BMP180;6022;48.768;18.608;2023-07-08T09:13:32;98963.53;;;36.21
11926;BMP180;6022;48.768;18.608;2023-07-08T09:21:44;98974.22;;;35.72
11926;BMP180;6022;48.768;18.608;2023-07-08T09:24:48;98970.59;;;35.62
11926;BMP180;6022;48.768;18.608;2023-07-08T09:28:43;98967.81;;;36.06
11926;BMP180;6022;48.768;18.608;2023-07-08T09:31:31;98960.34;;;36.19
11926;BMP180;6022;48.768;18.608;2023-07-08T09:34:15;98960.28;;;35.28
11926;BMP180;6022;48.768;18.608;2023-07-08T09:36:47;98955.69;;;34.63
11926;BMP180;6022;48.768;18.608;2023-07-08T09:39:19;98957.69;;;35.65
11926;BMP180;6022;48.768;18.608;2023-07-08T09:41:53;98956.00;;;36.29
11926;BMP180;6022;48.768;18.608;2023-07-08T09:44:27;98955.84;;;36.41
11926;BMP180;6022;48.768;18.608;2023-07-08T09:47:00;98950.44;;;36.52
11926;BMP180;6022;48.768;18.608;2023-07-08T09:49:32;98947.38;;;36.18
11926;BMP180;6022;48.768;18.608;2023-07-08T09:52:02;98951.41;;;36.25
11926;BMP180;6022;48.768;18.608;2023-07-08T09:54:34;98956.44;;;36.48
11926;BMP180;6022;48.768;18.608;2023-07-08T09:57:32;98949.53;;;35.67
11926;BMP180;6022;48.768;18.608;2023-07-08T10:00:07;98949.78;;;35.82
11926;BMP180;6022;48.768;18.608;2023-07-08T10:02:57;98940.81;;;36.20
11926;BMP180;6022;48.768;18.608;2023-07-08T10:05:35;98947.53;;;36.32
11926;BMP180;6022;48.768;18.608;2023-07-08T10:08:20;98945.28;;;36.41
11926;BMP180;6022;48.768;18.608;2023-07-08T10:13:58;98939.53;;;36.06
11926;BMP180;6022;48.768;18.608;2023-07-08T10:16:46;98943.13;;;36.17
11926;BMP180;6022;48.768;18.608;2023-07-08T10:19:17;98936.84;;;36.01
11926;BMP180;6022;48.768;18.608;2023-07-08T10:25:27;98933.56;;;35.57
11926;BMP180;6022;48.768;18.608;2023-07-08T10:28:36;98930.97;;;35.99
11926;BMP180;6022;48.768;18.608;2023-07-08T10:34:37;98922.25;;;34.96
11926;BMP180;6022;48.768;18.608;2023-07-08T10:40:30;98911.16;;;35.10
11926;BMP180;6022;48.768;18.608;2023-07-08T10:46:00;98909.59;;;35.26
11926;BMP180;6022;48.768;18.608;2023-07-08T10:54:49;98909.31;;;34.12
11926;BMP180;6022;48.768;18.608;2023-07-08T11:04:00;98897.00;;;34.29
11926;BMP180;6022;48.768;18.608;2023-07-08T11:07:16;98893.13;;;34.31
11926;BMP180;6022;48.768;18.608;2023-07-08T11:09:53;98889.44;;;33.93
11926;BMP180;6022;48.768;18.608;2023-07-08T11:12:42;98893.75;;;33.99
11926;BMP180;6022;48.768;18.608;2023-07-08T11:21:02;98882.91;;;34.34
11926;BMP180;6022;48.768;18.608;2023-07-08T11:23:55;98880.69;;;34.04
11926;BMP180;6022;48.768;18.608;2023-07-08T11:26:28;98874.75;;;33.97
11926;BMP180;6022;48.768;18.608;2023-07-08T11:29:02;98878.13;;;34.32
11926;BMP180;6022;48.768;18.608;2023-07-08T11:31:33;98872.41;;;34.51
11926;BMP180;6022;48.768;18.608;2023-07-08T11:34:01;98882.81;;;34.73
11926;BMP180;6022;48.768;18.608;2023-07-08T11:36:31;98876.88;;;34.50
11926;BMP180;6022;48.768;18.608;2023-07-08T11:39:00;98866.53;;;34.33
11926;BMP180;6022;48.768;18.608;2023-07-08T11:41:34;98868.25;;;34.38
11926;BMP180;6022;48.768;18.608;2023-07-08T11:44:12;98863.75;;;34.55
11926;BMP180;6022;48.768;18.608;2023-07-08T11:46:55;98866.16;;;34.57
11926;BMP180;6022;48.768;18.608;2023-07-08T11:49:23;98861.13;;;34.55
11926;BMP180;6022;48.768;18.608;2023-07-08T11:51:56;98861.06;;;34.50
11926;BMP180;6022;48.768;18.608;2023-07-08T11:54:30;98854.44;;;34.64
11926;BMP180;6022;48.768;18.608;2023-07-08T11:57:05;98859.31;;;34.56
11926;BMP180;6022;48.768;18.608;2023-07-08T11:59:40;98859.47;;;34.66
11926;BMP180;6022;48.768;18.608;2023-07-08T12:02:16;98849.88;;;34.43
11926;BMP180;6022;48.768;18.608;2023-07-08T12:05:02;98853.00;;;34.40
11926;BMP180;6022;48.768;18.608;2023-07-08T12:07:45;98850.03;;;34.37
11926;BMP180;6022;48.768;18.608;2023-07-08T12:11:23;98845.47;;;34.21
11926;BMP180;6022;48.768;18.608;2023-07-08T12:13:42;98840.63;;;34.30
11926;BMP180;6022;48.768;18.608;2023-07-08T12:16:13;98840.63;;;33.40
11926;BMP180;6022;48.768;18.608;2023-07-08T12:23:23;98824.72;;;33.97
11926;BMP180;6022;48.768;18.608;2023-07-08T12:26:08;98829.63;;;34.05
11926;BMP180;6022;48.768;18.608;2023-07-08T12:28:38;98821.28;;;33.96
11926;BMP180;6022;48.768;18.608;2023-07-08T12:31:22;98829.56;;;33.89
11926;BMP180;6022;48.768;18.608;2023-07-08T12:33:55;98824.69;;;33.24
11926;BMP180;6022;48.768;18.608;2023-07-08T12:36:33;98820.69;;;33.55
11926;BMP180;6022;48.768;18.608;2023-07-08T12:39:01;98824.13;;;33.67
11926;BMP180;6022;48.768;18.608;2023-07-08T12:41:34;98820.81;;;33.60
11926;BMP180;6022;48.768;18.608;2023-07-08T12:44:21;98815.09;;;33.18
11926;BMP180;6022;48.768;18.608;2023-07-08T12:46:54;98811.41;;;32.74
11926;BMP180;6022;48.768;18.608;2023-07-08T12:49:22;98818.72;;;32.72
11926;BMP180;6022;48.768;18.608;2023-07-08T12:51:55;98822.69;;;32.51
11926;BMP180;6022;48.768;18.608;2023-07-08T12:54:24;98820.88;;;32.34
11926;BMP180;6022;48.768;18.608;2023-07-08T12:56:54;98816.88;;;32.32
11926;BMP180;6022;48.768;18.608;2023-07-08T12:59:27;98812.00;;;32.06
11926;BMP180;6022;48.768;18.608;2023-07-08T13:02:18;98815.88;;;32.03
11926;BMP180;6022;48.768;18.608;2023-07-08T13:05:00;98814.31;;;31.85
11926;BMP180;6022;48.768;18.608;2023-07-08T13:07:40;98809.63;;;31.51
11926;BMP180;6022;48.768;18.608;2023-07-08T13:10:23;98801.84;;;31.45
11926;BMP180;6022;48.768;18.608;2023-07-08T13:13:22;98800.19;;;31.50
11926;BMP180;6022;48.768;18.608;2023-07-08T13:15:52;98802.69;;;31.39
11926;BMP180;6022;48.768;18.608;2023-07-08T13:18:36;98805.00;;;31.35
11926;BMP180;6022;48.768;18.608;2023-07-08T13:21:13;98800.75;;;31.34
11926;BMP180;6022;48.768;18.608;2023-07-08T13:23:47;98800.53;;;31.36
11926;BMP180;6022;48.768;18.608;2023-07-08T13:26:22;98795.72;;;30.91
11926;BMP180;6022;48.768;18.608;2023-07-08T13:28:50;98800.69;;;30.99
11926;BMP180;6022;48.768;18.608;2023-07-08T13:31:22;98798.53;;;30.65
11926;BMP180;6022;48.768;18.608;2023-07-08T13:33:55;98793.84;;;30.43
11926;BMP180;6022;48.768;18.608;2023-07-08T13:36:33;98788.50;;;30.62
11926;BMP180;6022;48.768;18.608;2023-07-08T13:39:08;98796.41;;;30.80
11926;BMP180;6022;48.768;18.608;2023-07-08T13:41:36;98794.28;;;30.95
11926;BMP180;6022;48.768;18.608;2023-07-08T13:44:17;98797.06;;;31.00
11926;BMP180;6022;48.768;18.608;2023-07-08T13:46:56;98792.31;;;30.90
11926;BMP180;6022;48.768;18.608;2023-07-08T13:49:44;98784.47;;;30.84
11926;BMP180;6022;48.768;18.608;2023-07-08T13:52:20;98788.22;;;30.70
11926;BMP180;6022;48.768;18.608;2023-07-08T13:55:01;98783.66;;;30.59
11926;BMP180;6022;48.768;18.608;2023-07-08T13:57:37;98787.47;;;30.63
11926;BMP180;6022;48.768;18.608;2023-07-08T14:00:06;98779.56;;;30.70
11926;BMP180;6022;48.768;18.608;2023-07-08T14:02:35;98779.00;;;30.37
11926;BMP180;6022;48.768;18.608;2023-07-08T14:05:05;98778.91;;;30.50
11926;BMP180;6022;48.768;18.608;2023-07-08T14:07:33;98766.13;;;30.60
11926;BMP180;6022;48.768;18.608;2023-07-08T14:10:12;98767.53;;;30.62
11926;BMP180;6022;48.768;18.608;2023-07-08T14:12:40;98769.69;;;30.65
11926;BMP180;6022;48.768;18.608;2023-07-08T14:15:09;98782.88;;;30.59
11926;BMP180;6022;48.768;18.608;2023-07-08T14:17:37;98777.66;;;30.52
11926;BMP180;6022;48.768;18.608;2023-07-08T14:20:15;98779.09;;;30.48
11926;BMP180;6022;48.768;18.608;2023-07-08T14:22:43;98773.50;;;30.45
11926;BMP180;6022;48.768;18.608;2023-07-08T14:25:17;98776.56;;;30.42
11926;BMP180;6022;48.768;18.608;2023-07-08T14:27:47;98775.09;;;30.46
11926;BMP180;6022;48.768;18.608;2023-07-08T14:30:14;98780.63;;;30.38
11926;BMP180;6022;48.768;18.608;2023-07-08T14:32:43;98778.19;;;30.37
11926;BMP180;6022;48.768;18.608;2023-07-08T14:35:24;98775.78;;;30.35
11926;BMP180;6022;48.768;18.608;2023-07-08T14:37:52;98782.25;;;30.33
11926;BMP180;6022;48.768;18.608;2023-07-08T14:40:35;98778.66;;;30.21
11926;BMP180;6022;48.768;18.608;2023-07-08T14:43:06;98776.81;;;29.97
11926;BMP180;6022;48.768;18.608;2023-07-08T14:45:49;98772.50;;;29.78
11926;BMP180;6022;48.768;18.608;2023-07-08T14:48:17;98768.97;;;29.97
11926;BMP180;6022;48.768;18.608;2023-07-08T14:50:44;98764.72;;;30.03
11926;BMP180;6022;48.768;18.608;2023-07-08T14:53:14;98759.81;;;30.12
11926;BMP180;6022;48.768;18.608;2023-07-08T14:55:44;98754.97;;;30.09
11926;BMP180;6022;48.768;18.608;2023-07-08T14:58:29;98757.66;;;30.03
11926;BMP180;6022;48.768;18.608;2023-07-08T15:01:01;98756.69;;;29.98
11926;BMP180;6022;48.768;18.608;2023-07-08T15:03:34;98755.91;;;29.91
11926;BMP180;6022;48.768;18.608;2023-07-08T15:06:01;98756.53;;;29.86
11926;BMP180;6022;48.768;18.608;2023-07-08T15:08:32;98754.53;;;29.88
11926;BMP180;6022;48.768;18.608;2023-07-08T15:11:01;98751.84;;;29.95
11926;BMP180;6022;48.768;18.608;2023-07-08T15:13:33;98747.06;;;29.85
11926;BMP180;6022;48.768;18.608;2023-07-08T15:16:02;98746.28;;;29.85
11926;BMP180;6022;48.768;18.608;2023-07-08T15:18:32;98743.88;;;29.83
11926;BMP180;6022;48.768;18.608;2023-07-08T15:21:02;98746.34;;;29.78
11926;BMP180;6022;48.768;18.608;2023-07-08T15:23:32;98742.72;;;29.67
11926;BMP180;6022;48.768;18.608;2023-07-08T15:26:18;98744.75;;;29.65
11926;BMP180;6022;48.768;18.608;2023-07-08T15:28:49;98738.31;;;29.61
11926;BMP180;6022;48.768;18.608;2023-07-08T15:31:24;98731.50;;;29.60
11926;BMP180;6022;48.768;18.608;2023-07-08T15:33:55;98733.75;;;29.50
11926;BMP180;6022;48.768;18.608;2023-07-08T15:36:22;98733.16;;;29.48
11926;BMP180;6022;48.768;18.608;2023-07-08T15:38:49;98730.19;;;29.38
11926;BMP180;6022;48.768;18.608;2023-07-08T15:41:26;98735.88;;;29.09
11926;BMP180;6022;48.768;18.608;2023-07-08T15:44:03;98729.66;;;29.04
11926;BMP180;6022;48.768;18.608;2023-07-08T15:46:36;98723.47;;;28.92
11926;BMP180;6022;48.768;18.608;2023-07-08T15:49:14;98726.28;;;28.91
11926;BMP180;6022;48.768;18.608;2023-07-08T15:51:46;98724.25;;;28.86
11926;BMP180;6022;48.768;18.608;2023-07-08T15:54:18;98731.09;;;28.93
11926;BMP180;6022;48.768;18.608;2023-07-08T15:56:52;98720.44;;;28.95
11926;BMP180;6022;48.768;18.608;2023-07-08T15:59:27;98722.84;;;28.96
11926;BMP180;6022;48.768;18.608;2023-07-08T16:02:01;98720.03;;;28.91